This is the latest recevied weather packets stored in our database for station/object KE0TNI-13. If no packets are shown the sender has not sent any weather packets the latest 10 day(s).
| Time | Temp. | Humidity | Pressure | Rain* | Wind** | Luminosity | Snow |
|---|---|---|---|---|---|---|---|
| 1777017598 | -2.22° C | 41% | 1015.2 hPa | 0 mm | - | 0 W/m² | - |
| 1777017295 | -2.78° C | 42% | 1015.2 hPa | 0 mm | - | 0 W/m² | - |
| 1777016991 | -2.78° C | 43% | 1015 hPa | 0 mm | - | 0 W/m² | - |
| 1777016688 | -2.78° C | 43% | 1015 hPa | 0 mm | - | 0 W/m² | - |
| 1777016385 | -2.78° C | 44% | 1014.8 hPa | 0 mm | - | 0 W/m² | - |
| 1777016082 | -2.78° C | 42% | 1015 hPa | 0 mm | - | 0 W/m² | - |
| 1777015778 | -2.78° C | 41% | 1014.8 hPa | 0 mm | - | 0 W/m² | - |
| 1777015475 | -2.22° C | 40% | 1014.9 hPa | 0 mm | - | 0 W/m² | - |
| 1777015172 | -2.22° C | 40% | 1014.8 hPa | 0 mm | - | 0 W/m² | - |
| 1777014867 | -2.22° C | 39% | 1014.8 hPa | 0 mm | - | 0 W/m² | - |
| 1777014567 | -2.22° C | 40% | 1014.7 hPa | 0 mm | - | 0 W/m² | - |
| 1777014262 | -2.22° C | 39% | 1014.4 hPa | 0 mm | - | 0 W/m² | - |
| 1777013959 | -1.67° C | 39% | 1014.4 hPa | 0 mm | - | 0 W/m² | - |
| 1777013655 | -1.11° C | 37% | 1014.3 hPa | 0 mm | - | 0 W/m² | - |
| 1777013353 | -1.11° C | 38% | 1014.4 hPa | 0 mm | - | 0 W/m² | - |
| 1777013049 | -1.11° C | 35% | 1014.4 hPa | 0 mm | - | 0 W/m² | - |
| 1777012746 | -1.11° C | 38% | 1014.1 hPa | 0 mm | - | 0 W/m² | - |
| 1777012442 | -0.56° C | 34% | 1014.1 hPa | 0 mm | - | 0 W/m² | - |
| 1777012137 | -0.56° C | 36% | 1013.9 hPa | 0 mm | - | 0 W/m² | - |
| 1777011833 | 0° C | 35% | 1014 hPa | 0 mm | - | 0 W/m² | - |
| 1777011530 | 0° C | 34% | 1013.7 hPa | 0 mm | - | 0 W/m² | - |
| 1777011227 | -0.56° C | 39% | 1014.1 hPa | 0 mm | - | 0 W/m² | - |
| 1777010924 | -1.11° C | 39% | 1014.1 hPa | 0 mm | - | 0 W/m² | - |
| 1777010620 | -0.56° C | 39% | 1014 hPa | 0 mm | - | 0 W/m² | - |
| 1777010316 | 0° C | 39% | 1013.7 hPa | 0 mm | - | 0 W/m² | - |
* Rain latest hour (hover to see other rain measurements)
** Current wind speed in m/s (hover to see current wind gust speed)